createdAt,value
2022-08-29T00:12:59.461Z,100547.24
2022-08-29T00:27:50.762Z,100542.61
2022-08-29T00:42:41.757Z,100549.52
2022-08-29T00:57:32.579Z,100549.94
2022-08-29T01:12:24.119Z,100566.16
2022-08-29T01:27:14.419Z,100565.55
2022-08-29T01:42:05.289Z,100563.41
2022-08-29T01:56:57.310Z,100573.17
2022-08-29T02:11:48.617Z,100563.80
2022-08-29T02:26:40.960Z,100575.94
2022-08-29T02:41:32.479Z,100576.23
2022-08-29T02:56:22.663Z,100581.75
2022-08-29T03:11:12.925Z,100580.52
2022-08-29T03:26:04.289Z,100583.13
2022-08-29T03:40:57.553Z,100576.56
2022-08-29T03:55:46.601Z,100577.14
2022-08-29T04:10:38.447Z,100580.48
2022-08-29T04:25:32.915Z,100589.42
2022-08-29T04:40:20.303Z,100598.47
2022-08-29T04:55:11.787Z,100612.29
2022-08-29T05:10:02.661Z,100628.06
2022-08-29T05:24:53.595Z,100633.41
2022-08-29T05:39:45.036Z,100632.95
2022-08-29T05:54:36.344Z,100638.06
2022-08-29T06:09:27.637Z,100644.16
2022-08-29T06:24:18.773Z,100657.72
2022-08-29T06:39:10.895Z,100663.58
2022-08-29T06:54:03.826Z,100670.80
2022-08-29T07:08:56.446Z,100676.12
2022-08-29T07:23:46.878Z,100683.50
2022-08-29T07:38:39.106Z,100678.59
2022-08-29T07:53:32.353Z,100680.72
2022-08-29T08:08:24.327Z,100675.51
2022-08-29T08:23:17.071Z,100681.11
2022-08-29T08:38:10.031Z,100693.70
2022-08-29T08:53:07.859Z,100678.94
2022-08-29T09:08:07.929Z,100686.88
2022-08-29T09:23:07.077Z,100679.08
2022-08-29T09:38:02.210Z,100681.61
2022-08-29T09:53:00.737Z,100670.63
2022-08-29T10:07:57.080Z,100656.27
2022-08-29T10:23:05.473Z,100654.33
2022-08-29T10:38:33.698Z,100649.77
2022-08-29T10:53:32.603Z,100638.33
2022-08-29T11:08:31.967Z,100625.52
2022-08-29T11:23:40.352Z,100601.77
2022-08-29T11:38:43.995Z,100593.86
2022-08-29T11:53:41.198Z,100589.17
2022-08-29T12:08:37.833Z,100573.19
2022-08-29T12:23:35.733Z,100577.20
2022-08-29T12:38:31.606Z,100552.81
2022-08-29T12:53:28.987Z,100534.23
2022-08-29T13:08:31.047Z,100526.05
2022-08-29T13:23:28.456Z,100506.32
2022-08-29T13:38:21.901Z,100504.42
2022-08-29T13:53:15.350Z,100496.52
2022-08-29T14:08:07.956Z,100484.77
2022-08-29T14:23:00.640Z,100469.16
2022-08-29T14:37:53.502Z,100443.03
2022-08-29T14:52:45.907Z,100432.81
2022-08-29T15:07:38.341Z,100428.94
2022-08-29T15:22:34.078Z,100418.17
2022-08-29T15:37:29.398Z,100400.64
2022-08-29T15:52:18.245Z,100401.98
2022-08-29T16:07:08.806Z,100391.01
2022-08-29T16:21:59.547Z,100381.80
2022-08-29T16:36:51.140Z,100376.78
2022-08-29T16:51:43.553Z,100362.39
2022-08-29T17:06:36.581Z,100368.87
2022-08-29T17:21:27.699Z,100366.48
2022-08-29T17:36:19.005Z,100365.77
2022-08-29T17:51:10.778Z,100371.92
2022-08-29T18:06:03.596Z,100389.28
2022-08-29T18:20:56.563Z,100392.66
2022-08-29T18:35:47.740Z,100401.11
2022-08-29T18:50:39.591Z,100416.91
2022-08-29T19:05:31.071Z,100433.37
2022-08-29T19:20:41.201Z,100429.34
2022-08-29T19:35:38.257Z,100440.78
2022-08-29T19:50:30.874Z,100458.40
2022-08-29T20:05:24.604Z,100478.66
2022-08-29T20:20:16.221Z,100488.63
2022-08-29T20:35:07.342Z,100495.84
2022-08-29T20:49:57.959Z,100497.66
2022-08-29T21:05:07.842Z,100507.16
2022-08-29T21:20:05.575Z,100514.48
2022-08-29T21:34:56.889Z,100516.65
2022-08-29T21:49:48.113Z,100523.59
2022-08-29T22:04:39.099Z,100532.17
2022-08-29T22:19:30.207Z,100536.92
2022-08-29T22:34:21.848Z,100538.38
2022-08-29T22:49:14.075Z,100534.30
2022-08-29T23:04:06.077Z,100515.95
2022-08-29T23:18:56.875Z,100503.27
